Terminal Aerodrome Forecast
Issued by NWS Buffalo, NY

Home | Current Version | Previous Version | Text Only | Print | Product List | Glossary On
Versions: 1 2 3 4 5 6 7 8 9 10 11 12 13 14 15 16 17 18 19 20 21 22 23 24 25 26 27 28
000
FTUS41 KBUF 281120
TAFBUF
TAF
KBUF 281120Z 2812/2912 00000KT 2SM BR OVC007
     FM281400 35004KT 3SM BR VCSH OVC015
     FM281600 35005KT 5SM BR VCSH OVC018
     FM281700 35005KT P6SM OVC025=

USA.gov is the U.S. government's official web portal to all federal, state and local government web resources and services.